Time;durP1;ratioP1;P1;durP2;ratioP2;P2;SDS_P1;SDS_P2;PMS_P1;PMS_P2;Temp;Humidity;BMP_temperature;BMP_pressure;BME280_temperature;BME280_humidity;BME280_pressure;Samples;Min_cycle;Max_cycle;Signal;HPM_P1;HPM_P2
2022/07/21 00:00:29;;;;;;;7.00;6.43;;;;;;;;;;5026944;28;20186;-57
2022/07/21 00:02:57;;;;;;;6.23;5.73;;;;;;;;;;5031724;28;20189;-56
2022/07/21 00:05:30;;;;;;;6.17;5.70;;;;;;;;;;5013472;28;20178;-56
2022/07/21 00:07:56;;;;;;;6.63;5.97;;;;;;;;;;4992932;28;20677;-58
2022/07/21 00:10:23;;;;;;;6.53;6.03;;;;;;;;;;5020954;28;20181;-59
2022/07/21 00:12:49;;;;;;;7.03;6.40;;;;;;;;;;5037706;28;20759;-56
2022/07/21 00:15:17;;;;;;;6.00;5.60;;;;;;;;;;5031504;28;20649;-56
2022/07/21 00:17:43;;;;;;;6.20;5.63;;;;;;;;;;5008359;28;20181;-57
2022/07/21 00:20:10;;;;;;;6.00;5.60;;;;;;;;;;5026177;28;20672;-56
2022/07/21 00:22:37;;;;;;;5.77;5.37;;;;;;;;;;5012883;28;20594;-58
2022/07/21 00:25:03;;;;;;;6.13;5.63;;;;;;;;;;5028120;28;20304;-59
2022/07/21 00:27:29;;;;;;;6.17;5.67;;;;;;;;;;5007603;28;20718;-57
2022/07/21 00:29:55;;;;;;;6.07;5.57;;;;;;;;;;5036364;28;20250;-57
2022/07/21 00:32:22;;;;;;;6.57;6.07;;;;;;;;;;5028913;28;20193;-57
2022/07/21 00:34:48;;;;;;;6.10;5.60;;;;;;;;;;5026084;28;20186;-58
2022/07/21 00:37:16;;;;;;;6.50;5.90;;;;;;;;;;5007423;28;20186;-57
2022/07/21 00:39:42;;;;;;;6.00;5.50;;;;;;;;;;5031963;28;20205;-56
2022/07/21 00:42:09;;;;;;;6.23;5.73;;;;;;;;;;5024272;28;20865;-58
2022/07/21 00:44:35;;;;;;;6.40;5.83;;;;;;;;;;5010444;28;20178;-56
2022/07/21 00:47:01;;;;;;;6.10;5.50;;;;;;;;;;5028918;28;20224;-57
2022/07/21 00:49:27;;;;;;;7.30;5.67;;;;;;;;;;5009972;28;20726;-59
2022/07/21 00:51:53;;;;;;;5.83;5.43;;;;;;;;;;5018913;28;20190;-56
2022/07/21 00:54:19;;;;;;;5.50;5.10;;;;;;;;;;5020268;28;20241;-56
2022/07/21 00:56:46;;;;;;;6.23;5.63;;;;;;;;;;5027187;28;20642;-55
2022/07/21 00:59:13;;;;;;;5.77;5.27;;;;;;;;;;5028022;28;20202;-56
2022/07/21 01:01:39;;;;;;;5.87;5.37;;;;;;;;;;5024561;28;20197;-56
2022/07/21 01:04:05;;;;;;;6.80;6.20;;;;;;;;;;5024556;28;20178;-57
2022/07/21 01:06:31;;;;;;;6.03;5.43;;;;;;;;;;5027388;28;20594;-57
2022/07/21 01:08:57;;;;;;;6.47;5.87;;;;;;;;;;5028396;28;20187;-57
2022/07/21 01:11:25;;;;;;;5.90;5.40;;;;;;;;;;5025303;28;20190;-58
2022/07/21 01:13:51;;;;;;;6.33;5.73;;;;;;;;;;5007074;28;20186;-56
2022/07/21 01:16:17;;;;;;;6.97;6.00;;;;;;;;;;5008047;28;20244;-57
2022/07/21 01:18:46;;;;;;;6.47;5.33;;;;;;;;;;5026568;28;20198;-59
2022/07/21 01:21:33;;;;;;;6.17;5.63;;;;;;;;;;5026629;28;20205;-57
2022/07/21 01:23:59;;;;;;;6.70;6.10;;;;;;;;;;5005406;28;20192;-56
2022/07/21 01:26:26;;;;;;;7.80;5.80;;;;;;;;;;5023297;28;20178;-55
2022/07/21 01:28:52;;;;;;;5.23;4.83;;;;;;;;;;5021980;28;20189;-58
2022/07/21 01:31:18;;;;;;;5.13;4.70;;;;;;;;;;5022727;28;20190;-56
2022/07/21 01:33:44;;;;;;;6.40;5.80;;;;;;;;;;5009641;28;20201;-56
2022/07/21 01:36:11;;;;;;;5.90;5.37;;;;;;;;;;5018377;28;20283;-55
2022/07/21 01:41:32;;;;;;;6.27;5.30;;;;;;;;;;5028672;28;20720;-56
2022/07/21 01:44:00;;;;;;;6.37;5.73;;;;;;;;;;5039738;28;20165;-55
2022/07/21 01:46:26;;;;;;;5.80;5.40;;;;;;;;;;5030171;28;20262;-56
2022/07/21 01:48:52;;;;;;;6.37;5.77;;;;;;;;;;5010848;28;20237;-55
2022/07/21 01:51:19;;;;;;;6.10;5.50;;;;;;;;;;5033452;28;20900;-55
2022/07/21 01:53:45;;;;;;;5.80;5.40;;;;;;;;;;5030742;28;20359;-55
2022/07/21 01:56:11;;;;;;;6.67;5.43;;;;;;;;;;5007277;28;20647;-57
2022/07/21 01:58:37;;;;;;;6.20;5.70;;;;;;;;;;5028659;28;20243;-56
2022/07/21 02:01:04;;;;;;;5.87;5.37;;;;;;;;;;5013238;28;20697;-55
2022/07/21 02:03:30;;;;;;;6.30;5.70;;;;;;;;;;5028345;28;20237;-55
2022/07/21 02:06:07;;;;;;;6.00;5.50;;;;;;;;;;5012966;28;20685;-58
2022/07/21 02:08:33;;;;;;;5.97;5.37;;;;;;;;;;5007798;28;20179;-58
2022/07/21 02:10:59;;;;;;;6.77;6.03;;;;;;;;;;5024894;28;20661;-59
2022/07/21 02:13:25;;;;;;;5.73;5.20;;;;;;;;;;5031710;28;20597;-56
2022/07/21 02:15:52;;;;;;;6.23;5.73;;;;;;;;;;5012487;28;20185;-56
2022/07/21 02:18:18;;;;;;;6.60;6.00;;;;;;;;;;5027360;28;20562;-56
2022/07/21 02:20:47;;;;;;;7.03;6.33;;;;;;;;;;5027720;28;20700;-59
2022/07/21 02:23:14;;;;;;;6.87;5.97;;;;;;;;;;5027574;28;20159;-57
2022/07/21 02:25:40;;;;;;;5.93;5.43;;;;;;;;;;5033681;28;20186;-57
2022/07/21 02:28:06;;;;;;;6.60;6.00;;;;;;;;;;5027861;28;20213;-57
2022/07/21 02:30:32;;;;;;;6.30;5.70;;;;;;;;;;5028812;28;20187;-57
2022/07/21 02:32:58;;;;;;;6.13;5.40;;;;;;;;;;5027587;28;20190;-56
2022/07/21 02:35:24;;;;;;;5.63;5.07;;;;;;;;;;5013129;28;20188;-56
2022/07/21 02:37:50;;;;;;;6.60;6.07;;;;;;;;;;5030451;28;20243;-56
2022/07/21 02:40:17;;;;;;;6.72;6.13;;;;;;;;;;5015111;28;20968;-56
2022/07/21 02:42:43;;;;;;;6.50;5.90;;;;;;;;;;5009891;28;20169;-56
2022/07/21 02:45:09;;;;;;;6.47;5.87;;;;;;;;;;5010755;28;20284;-57
2022/07/21 02:47:55;;;;;;;5.63;5.13;;;;;;;;;;5024088;28;20671;-57
2022/07/21 02:50:22;;;;;;;6.70;6.10;;;;;;;;;;5026975;28;20170;-56
2022/07/21 02:52:48;;;;;;;6.20;5.60;;;;;;;;;;5021362;28;20191;-56
2022/07/21 02:55:15;;;;;;;6.30;5.80;;;;;;;;;;5029326;28;20660;-55
2022/07/21 02:57:44;;;;;;;6.53;6.03;;;;;;;;;;5028295;28;20554;-57
2022/07/21 03:00:13;;;;;;;6.47;5.97;;;;;;;;;;5026807;28;20194;-57
2022/07/21 03:02:39;;;;;;;6.07;5.57;;;;;;;;;;5030829;28;20692;-56
2022/07/21 03:05:05;;;;;;;6.30;5.80;;;;;;;;;;5032929;28;20292;-55
2022/07/21 03:07:31;;;;;;;5.83;5.27;;;;;;;;;;5032846;28;20167;-56
2022/07/21 03:09:58;;;;;;;6.70;6.10;;;;;;;;;;5028313;28;20181;-56
2022/07/21 03:12:24;;;;;;;6.20;5.70;;;;;;;;;;5011580;28;20174;-56
2022/07/21 03:14:50;;;;;;;6.47;5.87;;;;;;;;;;5029894;28;20633;-57
2022/07/21 03:17:16;;;;;;;7.20;6.60;;;;;;;;;;5019980;28;20693;-55
2022/07/21 03:19:42;;;;;;;6.53;6.03;;;;;;;;;;5032614;28;20256;-57
2022/07/21 03:22:08;;;;;;;5.97;5.47;;;;;;;;;;5008217;28;20285;-56
2022/07/21 03:24:34;;;;;;;6.20;5.70;;;;;;;;;;4999716;28;20341;-56
2022/07/21 03:27:00;;;;;;;5.73;5.30;;;;;;;;;;5029575;28;20557;-58
2022/07/21 03:29:32;;;;;;;5.90;5.40;;;;;;;;;;5029488;28;20576;-55
2022/07/21 03:31:58;;;;;;;7.73;7.13;;;;;;;;;;5023274;28;20748;-54
2022/07/21 03:34:24;;;;;;;6.00;5.50;;;;;;;;;;5025697;28;20701;-58
2022/07/21 03:36:50;;;;;;;6.07;5.57;;;;;;;;;;5010788;28;20189;-56
2022/07/21 03:39:17;;;;;;;6.17;5.57;;;;;;;;;;5026926;28;20204;-57
2022/07/21 03:41:43;;;;;;;5.67;5.10;;;;;;;;;;5014989;28;20227;-55
2022/07/21 03:44:15;;;;;;;6.33;5.83;;;;;;;;;;5035695;28;20174;-58
2022/07/21 03:46:41;;;;;;;5.70;5.30;;;;;;;;;;5035684;28;20558;-56
2022/07/21 03:49:07;;;;;;;5.93;5.50;;;;;;;;;;5037249;28;20540;-55
2022/07/21 03:51:37;;;;;;;6.57;5.97;;;;;;;;;;5028885;28;20224;-57
2022/07/21 03:54:03;;;;;;;6.20;5.70;;;;;;;;;;5014306;28;20656;-56
2022/07/21 03:56:29;;;;;;;6.27;5.77;;;;;;;;;;5028109;28;20182;-56
2022/07/21 03:58:55;;;;;;;5.83;5.40;;;;;;;;;;5031660;28;20267;-56
2022/07/21 04:01:21;;;;;;;9.27;8.67;;;;;;;;;;5029697;28;20711;-55
2022/07/21 04:03:47;;;;;;;5.90;4.53;;;;;;;;;;5028485;28;20817;-56
2022/07/21 04:06:14;;;;;;;5.73;5.27;;;;;;;;;;5029003;28;20183;-56
2022/07/21 04:08:40;;;;;;;4.90;4.60;;;;;;;;;;5007792;28;20194;-55
2022/07/21 04:11:09;;;;;;;5.93;5.43;;;;;;;;;;5024739;28;20185;-55
2022/07/21 04:13:35;;;;;;;5.67;5.17;;;;;;;;;;5028076;28;20270;-56
2022/07/21 04:16:01;;;;;;;6.50;5.90;;;;;;;;;;5030968;28;20261;-56
2022/07/21 04:18:27;;;;;;;6.10;5.60;;;;;;;;;;5025576;28;20212;-56
2022/07/21 04:20:53;;;;;;;5.50;5.00;;;;;;;;;;5035652;28;20758;-55
2022/07/21 04:23:19;;;;;;;8.63;8.03;;;;;;;;;;5026758;28;20186;-55
2022/07/21 04:25:45;;;;;;;5.87;5.37;;;;;;;;;;5027663;28;20185;-56
2022/07/21 04:28:11;;;;;;;5.67;5.17;;;;;;;;;;5022453;28;20708;-56
2022/07/21 04:30:38;;;;;;;5.80;5.30;;;;;;;;;;5026431;28;20588;-55
2022/07/21 04:33:04;;;;;;;5.30;4.83;;;;;;;;;;5009156;28;20644;-55
2022/07/21 04:35:30;;;;;;;6.07;5.17;;;;;;;;;;5012065;28;20193;-55
2022/07/21 04:37:56;;;;;;;6.37;5.77;;;;;;;;;;5007404;28;20190;-56
2022/07/21 04:40:22;;;;;;;6.27;4.90;;;;;;;;;;5027005;28;20178;-58
2022/07/21 04:42:48;;;;;;;5.60;5.10;;;;;;;;;;5024293;28;20186;-55
2022/07/21 04:45:15;;;;;;;4.90;4.60;;;;;;;;;;5025224;28;20178;-56
2022/07/21 04:47:52;;;;;;;5.90;5.40;;;;;;;;;;5008136;28;20186;-57
2022/07/21 04:50:19;;;;;;;6.37;5.87;;;;;;;;;;5026334;28;20169;-56
2022/07/21 04:52:45;;;;;;;5.97;5.37;;;;;;;;;;5025720;28;20649;-55
2022/07/21 04:55:11;;;;;;;4.80;4.50;;;;;;;;;;5020617;28;20189;-57
2022/07/21 04:57:39;;;;;;;6.90;5.53;;;;;;;;;;5019120;28;20197;-56
2022/07/21 05:00:05;;;;;;;6.50;6.00;;;;;;;;;;5025575;28;20288;-56
2022/07/21 05:02:32;;;;;;;5.73;5.23;;;;;;;;;;5008736;28;20182;-57
2022/07/21 05:04:58;;;;;;;6.50;5.63;;;;;;;;;;5028066;28;20257;-56
2022/07/21 05:07:24;;;;;;;5.43;4.93;;;;;;;;;;5026312;28;20256;-56
2022/07/21 05:09:50;;;;;;;6.30;5.70;;;;;;;;;;5007170;28;20194;-56
2022/07/21 05:12:22;;;;;;;5.47;5.00;;;;;;;;;;5009320;28;20197;-59
2022/07/21 05:14:48;;;;;;;5.93;5.33;;;;;;;;;;5027549;28;20174;-57
2022/07/21 05:17:14;;;;;;;6.20;5.70;;;;;;;;;;5029976;28;20180;-56
2022/07/21 05:19:42;;;;;;;5.80;5.30;;;;;;;;;;5027353;28;20206;-56
2022/07/21 05:22:08;;;;;;;5.33;4.93;;;;;;;;;;5026751;28;20645;-56
2022/07/21 05:24:34;;;;;;;6.27;5.67;;;;;;;;;;5010589;28;20292;-56
2022/07/21 05:27:00;;;;;;;5.63;5.13;;;;;;;;;;5026929;28;20209;-56
2022/07/21 05:29:26;;;;;;;6.27;5.67;;;;;;;;;;5032329;28;20769;-58
2022/07/21 05:31:55;;;;;;;6.00;5.50;;;;;;;;;;5028466;28;20190;-56
2022/07/21 05:34:21;;;;;;;6.43;5.83;;;;;;;;;;5030719;28;20182;-56
2022/07/21 05:36:49;;;;;;;6.63;5.90;;;;;;;;;;5005954;28;20206;-56
2022/07/21 05:39:16;;;;;;;5.70;5.00;;;;;;;;;;5024789;28;20186;-59
2022/07/21 05:41:42;;;;;;;5.97;5.47;;;;;;;;;;5017761;28;21175;-58
2022/07/21 05:44:08;;;;;;;5.90;5.40;;;;;;;;;;5019981;28;20179;-55
2022/07/21 05:46:36;;;;;;;6.37;5.30;;;;;;;;;;5007463;28;20728;-56
2022/07/21 05:49:03;;;;;;;5.63;5.13;;;;;;;;;;5026904;28;20236;-56
2022/07/21 05:51:29;;;;;;;8.27;7.23;;;;;;;;;;5023566;28;20700;-54
2022/07/21 05:53:55;;;;;;;9.20;8.03;;;;;;;;;;5024954;28;20182;-55
2022/07/21 05:56:21;;;;;;;8.87;8.07;;;;;;;;;;5024658;28;20585;-55
2022/07/21 05:58:47;;;;;;;10.93;9.83;;;;;;;;;;5023719;28;20206;-55
2022/07/21 06:01:16;;;;;;;9.93;9.03;;;;;;;;;;5006130;28;20190;-56
2022/07/21 06:03:42;;;;;;;10.17;9.17;;;;;;;;;;5023212;28;20178;-58
2022/07/21 06:06:09;;;;;;;9.57;8.43;;;;;;;;;;5001208;28;20193;-55
2022/07/21 06:08:36;;;;;;;9.83;8.93;;;;;;;;;;5010735;28;20178;-55
2022/07/21 06:11:02;;;;;;;9.53;8.73;;;;;;;;;;5025133;28;20536;-57
2022/07/21 06:13:29;;;;;;;10.33;9.33;;;;;;;;;;5023130;28;20671;-55
2022/07/21 06:15:55;;;;;;;10.00;8.83;;;;;;;;;;5024015;28;20223;-55
2022/07/21 06:18:21;;;;;;;10.33;9.37;;;;;;;;;;5006636;28;20216;-55
2022/07/21 06:20:47;;;;;;;10.13;9.13;;;;;;;;;;5005662;28;20211;-57
2022/07/21 06:23:14;;;;;;;9.67;8.67;;;;;;;;;;5026004;28;20183;-57
2022/07/21 06:25:43;;;;;;;9.23;7.80;;;;;;;;;;5019136;28;20182;-55
2022/07/21 06:28:09;;;;;;;11.17;9.00;;;;;;;;;;5021692;28;20205;-56
2022/07/21 06:30:35;;;;;;;8.67;7.87;;;;;;;;;;5025110;28;20231;-55
2022/07/21 06:33:01;;;;;;;14.27;8.20;;;;;;;;;;5024418;28;20192;-55
2022/07/21 06:35:27;;;;;;;8.80;7.90;;;;;;;;;;5020887;28;20187;-58
2022/07/21 06:37:53;;;;;;;8.47;7.67;;;;;;;;;;5003641;28;20180;-56
2022/07/21 06:40:20;;;;;;;9.03;6.27;;;;;;;;;;5008567;28;20196;-56
2022/07/21 06:42:46;;;;;;;7.90;6.63;;;;;;;;;;5024898;28;20644;-55
2022/07/21 06:45:13;;;;;;;9.67;7.70;;;;;;;;;;5027394;28;20678;-58
2022/07/21 06:47:45;;;;;;;7.53;6.53;;;;;;;;;;5023259;28;20735;-55
2022/07/21 06:50:11;;;;;;;7.50;6.57;;;;;;;;;;5025631;28;20651;-56
2022/07/21 06:52:38;;;;;;;7.03;6.17;;;;;;;;;;5028882;28;20178;-56
2022/07/21 06:55:05;;;;;;;6.10;5.60;;;;;;;;;;5008395;28;20622;-55
2022/07/21 06:57:31;;;;;;;9.37;6.50;;;;;;;;;;5026460;28;20181;-57
2022/07/21 06:59:57;;;;;;;6.27;5.70;;;;;;;;;;5023516;28;20204;-56
2022/07/21 07:02:26;;;;;;;6.57;5.17;;;;;;;;;;5026614;28;20195;-56
2022/07/21 07:04:55;;;;;;;6.87;6.20;;;;;;;;;;5014323;28;20177;-56
2022/07/21 07:07:24;;;;;;;6.93;6.23;;;;;;;;;;5006367;28;20251;-56
2022/07/21 07:09:50;;;;;;;9.33;6.40;;;;;;;;;;5026456;28;20195;-55
2022/07/21 07:12:16;;;;;;;7.00;6.40;;;;;;;;;;5024878;28;20665;-56
2022/07/21 07:14:42;;;;;;;6.80;6.20;;;;;;;;;;5028374;28;20191;-55
2022/07/21 07:17:13;;;;;;;7.30;6.40;;;;;;;;;;5032033;28;20314;-55
2022/07/21 07:19:39;;;;;;;7.30;6.30;;;;;;;;;;5030501;28;20224;-56
2022/07/21 07:22:05;;;;;;;7.17;6.47;;;;;;;;;;5026806;28;20674;-56
2022/07/21 07:24:31;;;;;;;6.80;5.90;;;;;;;;;;5026290;28;20180;-55
2022/07/21 07:26:57;;;;;;;6.93;6.23;;;;;;;;;;5027330;28;20267;-57
2022/07/21 07:29:23;;;;;;;5.53;5.10;;;;;;;;;;5030869;28;20183;-56
2022/07/21 07:31:49;;;;;;;8.27;6.13;;;;;;;;;;5029559;28;20192;-57
2022/07/21 07:34:19;;;;;;;7.27;5.63;;;;;;;;;;5022668;28;20326;-56
2022/07/21 07:36:48;;;;;;;6.33;5.73;;;;;;;;;;5026700;28;20190;-57
2022/07/21 07:39:15;;;;;;;6.63;5.67;;;;;;;;;;5008940;28;20209;-54
2022/07/21 07:41:42;;;;;;;7.67;6.00;;;;;;;;;;5007068;28;20603;-54
2022/07/21 07:44:08;;;;;;;7.03;5.10;;;;;;;;;;5023635;28;20176;-58
2022/07/21 07:46:37;;;;;;;7.27;5.23;;;;;;;;;;5017453;28;20229;-57
2022/07/21 07:49:03;;;;;;;5.93;5.33;;;;;;;;;;5023342;28;20178;-54
2022/07/21 07:51:29;;;;;;;6.00;5.23;;;;;;;;;;5020455;28;20528;-55
2022/07/21 07:53:55;;;;;;;5.90;5.30;;;;;;;;;;5024587;28;20189;-57
2022/07/21 07:56:21;;;;;;;5.83;5.23;;;;;;;;;;5023029;28;20191;-57
2022/07/21 07:58:47;;;;;;;7.10;6.43;;;;;;;;;;5023835;28;20206;-54
2022/07/21 08:01:16;;;;;;;5.67;5.17;;;;;;;;;;5020144;28;20229;-55
2022/07/21 08:03:42;;;;;;;5.40;4.90;;;;;;;;;;5014270;28;20185;-55
2022/07/21 08:06:08;;;;;;;5.93;5.03;;;;;;;;;;5018085;28;20501;-55
2022/07/21 08:08:34;;;;;;;5.40;4.90;;;;;;;;;;5018717;28;20240;-56
2022/07/21 08:11:00;;;;;;;5.63;5.13;;;;;;;;;;5003226;28;20190;-56
2022/07/21 08:13:27;;;;;;;5.90;4.80;;;;;;;;;;5021300;28;20190;-56
2022/07/21 08:15:53;;;;;;;4.93;4.43;;;;;;;;;;5002785;28;20185;-56
2022/07/21 08:18:19;;;;;;;5.63;4.70;;;;;;;;;;4998123;28;20747;-57
2022/07/21 08:20:47;;;;;;;5.47;4.80;;;;;;;;;;5019072;28;20209;-58
2022/07/21 08:23:13;;;;;;;6.37;4.90;;;;;;;;;;5021947;28;20578;-58
2022/07/21 08:25:40;;;;;;;6.43;5.17;;;;;;;;;;5018968;28;20195;-56
2022/07/21 08:28:06;;;;;;;8.63;5.10;;;;;;;;;;5020769;28;20797;-55
2022/07/21 08:30:32;;;;;;;7.10;5.67;;;;;;;;;;5023962;28;20732;-55
2022/07/21 08:32:59;;;;;;;7.10;5.40;;;;;;;;;;5022130;28;20174;-55
2022/07/21 08:35:26;;;;;;;6.23;5.63;;;;;;;;;;5009627;28;20213;-58
2022/07/21 08:38:01;;;;;;;7.40;6.27;;;;;;;;;;5024786;28;20182;-53
2022/07/21 08:40:38;;;;;;;5.20;4.77;;;;;;;;;;5006952;28;20192;-56
2022/07/21 08:43:06;;;;;;;7.33;5.60;;;;;;;;;;5023094;28;20197;-55
2022/07/21 08:45:32;;;;;;;7.30;5.57;;;;;;;;;;5010975;28;20184;-54
2022/07/21 08:47:59;;;;;;;5.80;5.23;;;;;;;;;;5039905;28;20295;-56
2022/07/21 08:50:29;;;;;;;6.90;5.53;;;;;;;;;;5034452;28;20203;-55
2022/07/21 08:52:55;;;;;;;7.33;6.00;;;;;;;;;;5036016;28;20185;-54
2022/07/21 08:55:21;;;;;;;7.00;6.30;;;;;;;;;;5032811;28;20177;-55
2022/07/21 08:57:47;;;;;;;7.70;6.00;;;;;;;;;;5040339;28;20184;-55
2022/07/21 09:00:14;;;;;;;6.57;5.90;;;;;;;;;;5020038;28;20710;-58
2022/07/21 09:02:40;;;;;;;7.70;6.17;;;;;;;;;;5033980;28;20182;-55
2022/07/21 09:05:08;;;;;;;8.00;6.00;;;;;;;;;;5036401;28;20540;-54
2022/07/21 09:08:00;;;;;;;6.43;5.83;;;;;;;;;;5026865;28;20213;-55
2022/07/21 09:10:27;;;;;;;6.37;5.67;;;;;;;;;;5026866;28;20233;-54
2022/07/21 09:12:57;;;;;;;7.00;5.53;;;;;;;;;;5026193;28;20582;-57
2022/07/21 09:15:25;;;;;;;8.23;6.30;;;;;;;;;;5038566;28;20185;-56
2022/07/21 09:18:23;;;;;;;6.10;5.60;;;;;;;;;;5009674;28;20192;-54
2022/07/21 09:20:51;;;;;;;6.40;5.70;;;;;;;;;;4969978;28;20209;-52
2022/07/21 09:23:18;;;;;;;6.63;5.90;;;;;;;;;;5008303;28;20190;-54
2022/07/21 09:25:49;;;;;;;8.97;6.47;;;;;;;;;;5031586;28;20209;-53
2022/07/21 09:28:15;;;;;;;21.93;7.70;;;;;;;;;;5032446;28;20182;-55
2022/07/21 09:30:51;;;;;;;9.83;7.07;;;;;;;;;;5015650;28;20559;-55
2022/07/21 09:33:22;;;;;;;7.40;6.37;;;;;;;;;;5032671;28;20757;-55
2022/07/21 09:36:21;;;;;;;7.13;5.97;;;;;;;;;;5040623;28;20185;-52
2022/07/21 09:38:50;;;;;;;7.10;6.40;;;;;;;;;;5032418;28;20231;-54
2022/07/21 09:41:21;;;;;;;7.07;6.43;;;;;;;;;;5032153;28;20578;-53
2022/07/21 09:43:48;;;;;;;7.73;7.00;;;;;;;;;;5036132;28;20546;-57
2022/07/21 09:46:19;;;;;;;6.80;5.93;;;;;;;;;;5035802;28;20251;-53
2022/07/21 09:48:48;;;;;;;6.63;6.03;;;;;;;;;;5032589;28;20234;-55
2022/07/21 09:51:34;;;;;;;7.67;6.87;;;;;;;;;;5030197;28;20181;-55
2022/07/21 09:54:03;;;;;;;9.83;6.80;;;;;;;;;;5030418;28;20190;-53
2022/07/21 09:56:30;;;;;;;10.47;7.17;;;;;;;;;;5035843;28;20649;-57
2022/07/21 09:58:57;;;;;;;9.13;6.80;;;;;;;;;;5026754;28;20284;-55
2022/07/21 10:01:24;;;;;;;7.00;6.33;;;;;;;;;;5029978;28;20313;-54
2022/07/21 10:03:51;;;;;;;8.67;6.60;;;;;;;;;;5007425;28;20231;-54
2022/07/21 10:06:19;;;;;;;9.20;6.90;;;;;;;;;;5016279;28;20178;-56
2022/07/21 10:08:48;;;;;;;10.77;6.57;;;;;;;;;;5022412;28;20266;-54
2022/07/21 10:11:14;;;;;;;7.73;7.03;;;;;;;;;;5006504;28;20204;-54
2022/07/21 10:13:40;;;;;;;10.30;7.00;;;;;;;;;;5024584;28;20311;-57
2022/07/21 10:16:10;;;;;;;7.60;6.80;;;;;;;;;;5025378;28;20182;-55
2022/07/21 10:18:59;;;;;;;8.53;7.60;;;;;;;;;;5023103;28;20199;-55
2022/07/21 10:21:25;;;;;;;13.17;7.60;;;;;;;;;;5018324;28;20217;-55
2022/07/21 10:23:54;;;;;;;8.60;7.43;;;;;;;;;;5025193;28;20652;-55
2022/07/21 10:26:20;;;;;;;9.57;7.80;;;;;;;;;;5013387;28;20182;-56
2022/07/21 10:28:46;;;;;;;12.67;8.87;;;;;;;;;;5016246;28;20794;-56
2022/07/21 10:31:17;;;;;;;11.20;8.53;;;;;;;;;;5003373;28;20186;-58
2022/07/21 10:33:43;;;;;;;8.53;7.73;;;;;;;;;;5018716;28;20897;-55
2022/07/21 10:36:28;;;;;;;9.90;9.00;;;;;;;;;;5022441;28;20713;-55
2022/07/21 10:39:06;;;;;;;10.63;8.90;;;;;;;;;;5007493;28;20203;-57
2022/07/21 10:41:38;;;;;;;10.53;8.70;;;;;;;;;;5008693;28;20180;-56
2022/07/21 10:44:24;;;;;;;10.03;8.63;;;;;;;;;;5002955;28;20177;-57
2022/07/21 10:47:11;;;;;;;9.83;8.93;;;;;;;;;;5001500;28;20229;-55
2022/07/21 10:49:44;;;;;;;11.27;9.83;;;;;;;;;;5002389;28;20944;-54
2022/07/21 10:52:29;;;;;;;11.13;9.23;;;;;;;;;;4996647;28;20668;-53
2022/07/21 10:55:16;;;;;;;11.87;9.33;;;;;;;;;;5005028;28;20182;-55
2022/07/21 10:57:44;;;;;;;10.90;9.57;;;;;;;;;;5009307;28;20629;-56
2022/07/21 11:00:27;;;;;;;10.23;8.60;;;;;;;;;;5001939;28;20209;-56
2022/07/21 11:02:55;;;;;;;10.23;9.13;;;;;;;;;;4976326;28;20177;-57
2022/07/21 11:05:21;;;;;;;10.23;9.23;;;;;;;;;;5002213;28;20181;-54
2022/07/21 11:08:06;;;;;;;11.63;9.07;;;;;;;;;;4992989;28;20794;-54
2022/07/21 11:10:32;;;;;;;11.13;8.20;;;;;;;;;;5009140;28;20212;-55
2022/07/21 11:12:58;;;;;;;8.37;7.57;;;;;;;;;;5006117;28;20197;-56
2022/07/21 11:15:44;;;;;;;8.93;8.07;;;;;;;;;;4996766;28;20854;-56
2022/07/21 11:18:11;;;;;;;8.03;7.27;;;;;;;;;;4999781;28;20185;-56
2022/07/21 11:20:37;;;;;;;7.80;6.97;;;;;;;;;;4999190;28;20202;-54
2022/07/21 11:23:03;;;;;;;8.43;7.07;;;;;;;;;;4982615;28;20429;-54
2022/07/21 11:25:30;;;;;;;7.67;6.97;;;;;;;;;;5002683;28;20191;-56
2022/07/21 11:27:56;;;;;;;7.77;6.97;;;;;;;;;;4994763;28;20612;-57
2022/07/21 11:30:22;;;;;;;6.87;6.20;;;;;;;;;;5023406;28;20174;-54
2022/07/21 11:32:48;;;;;;;7.40;6.70;;;;;;;;;;5018375;28;20550;-53
2022/07/21 11:35:15;;;;;;;7.37;6.70;;;;;;;;;;5015475;28;20186;-53
2022/07/21 11:37:42;;;;;;;7.60;6.90;;;;;;;;;;5021452;28;20542;-54
2022/07/21 11:40:12;;;;;;;7.17;6.53;;;;;;;;;;5022623;28;20252;-55
2022/07/21 11:42:38;;;;;;;7.03;6.33;;;;;;;;;;5022787;28;20374;-54
2022/07/21 11:45:05;;;;;;;8.07;7.37;;;;;;;;;;5023665;28;20220;-53
2022/07/21 11:47:31;;;;;;;7.83;7.13;;;;;;;;;;5022207;28;20221;-53
2022/07/21 11:49:59;;;;;;;8.23;7.53;;;;;;;;;;5006099;28;20196;-56
2022/07/21 11:52:29;;;;;;;8.80;7.90;;;;;;;;;;5023373;28;20230;-52
2022/07/21 11:54:57;;;;;;;9.40;7.43;;;;;;;;;;5018408;28;20174;-55
2022/07/21 11:57:24;;;;;;;8.23;7.43;;;;;;;;;;5018310;28;20268;-53
2022/07/21 11:59:51;;;;;;;10.20;9.30;;;;;;;;;;5022514;28;20492;-53
2022/07/21 12:02:21;;;;;;;8.10;7.50;;;;;;;;;;5021725;28;20557;-54
2022/07/21 12:05:08;;;;;;;8.97;8.17;;;;;;;;;;5022245;28;20266;-53
2022/07/21 12:07:38;;;;;;;8.47;7.73;;;;;;;;;;5023959;28;20223;-52
2022/07/21 12:10:10;;;;;;;9.57;8.67;;;;;;;;;;5020168;28;20191;-53
2022/07/21 12:12:37;;;;;;;8.50;7.67;;;;;;;;;;5023337;28;20710;-53
2022/07/21 12:15:31;;;;;;;9.07;7.73;;;;;;;;;;5024637;28;20211;-55
2022/07/21 12:17:58;;;;;;;9.13;7.30;;;;;;;;;;5011396;28;20212;-54
2022/07/21 12:20:32;;;;;;;8.90;7.50;;;;;;;;;;5018054;28;20226;-54
2022/07/21 12:22:59;;;;;;;8.47;7.77;;;;;;;;;;5017967;28;20650;-53
2022/07/21 12:25:36;;;;;;;7.97;7.17;;;;;;;;;;5021979;28;20192;-53
2022/07/21 12:28:02;;;;;;;7.07;6.47;;;;;;;;;;5025049;28;20191;-55
2022/07/21 12:30:36;;;;;;;7.10;6.40;;;;;;;;;;5025768;28;20669;-52
2022/07/21 12:33:04;;;;;;;6.90;6.30;;;;;;;;;;5013366;28;20184;-53
2022/07/21 12:35:31;;;;;;;7.20;6.60;;;;;;;;;;5014692;28;20774;-53
2022/07/21 12:38:00;;;;;;;5.97;5.47;;;;;;;;;;5020400;28;20184;-55
2022/07/21 12:40:27;;;;;;;6.43;5.90;;;;;;;;;;5024318;28;20204;-52
2022/07/21 12:43:03;;;;;;;5.33;4.73;;;;;;;;;;5015205;28;20245;-54
2022/07/21 12:45:29;;;;;;;5.90;5.40;;;;;;;;;;5021746;28;20225;-55
2022/07/21 12:48:09;;;;;;;5.47;5.00;;;;;;;;;;5010101;28;20750;-56
2022/07/21 12:50:38;;;;;;;5.50;5.00;;;;;;;;;;4998201;28;20639;-53
2022/07/21 12:53:04;;;;;;;4.60;4.20;;;;;;;;;;4999392;28;20272;-54
2022/07/21 12:55:30;;;;;;;4.83;4.43;;;;;;;;;;5001011;28;20270;-55
2022/07/21 12:57:56;;;;;;;4.40;4.00;;;;;;;;;;4997175;28;20224;-54
2022/07/21 13:00:23;;;;;;;4.87;4.47;;;;;;;;;;4997732;28;20241;-54
2022/07/21 13:02:57;;;;;;;3.70;3.50;;;;;;;;;;4984286;28;20231;-54
2022/07/21 13:05:24;;;;;;;5.33;4.83;;;;;;;;;;4980993;28;20709;-54
2022/07/21 13:07:51;;;;;;;6.17;5.57;;;;;;;;;;5003024;28;20203;-53
2022/07/21 13:10:17;;;;;;;6.60;5.90;;;;;;;;;;5000400;28;20675;-56
2022/07/21 13:12:47;;;;;;;7.47;6.77;;;;;;;;;;4995115;28;20189;-52
2022/07/21 13:15:14;;;;;;;6.17;5.67;;;;;;;;;;4997374;28;21670;-54
2022/07/21 13:17:40;;;;;;;6.80;6.20;;;;;;;;;;5005884;28;20768;-53
2022/07/21 13:20:07;;;;;;;6.03;5.43;;;;;;;;;;4988014;28;20235;-54
2022/07/21 13:22:33;;;;;;;5.43;4.93;;;;;;;;;;4991111;28;20196;-54
2022/07/21 13:24:59;;;;;;;5.90;4.83;;;;;;;;;;5002732;28;20231;-53
2022/07/21 13:27:25;;;;;;;6.43;5.60;;;;;;;;;;5001461;28;20182;-52
2022/07/21 13:29:52;;;;;;;5.97;5.37;;;;;;;;;;4995415;28;20209;-54
2022/07/21 13:32:18;;;;;;;6.40;5.80;;;;;;;;;;4992690;28;20606;-53
2022/07/21 13:34:44;;;;;;;7.63;6.77;;;;;;;;;;5006400;28;20181;-54
2022/07/21 13:37:11;;;;;;;8.53;6.80;;;;;;;;;;5006560;28;20596;-52
2022/07/21 13:39:38;;;;;;;7.63;6.93;;;;;;;;;;5005730;28;20221;-55
2022/07/21 13:42:05;;;;;;;7.97;7.17;;;;;;;;;;5004914;28;20659;-53
2022/07/21 13:44:32;;;;;;;8.77;7.83;;;;;;;;;;5006000;28;20185;-53
2022/07/21 13:46:59;;;;;;;7.50;6.83;;;;;;;;;;4994853;28;20314;-55
2022/07/21 13:49:25;;;;;;;8.13;7.30;;;;;;;;;;5010328;28;20442;-55
2022/07/21 13:51:54;;;;;;;8.87;8.03;;;;;;;;;;5012819;28;20292;-54
2022/07/21 13:54:21;;;;;;;9.77;6.93;;;;;;;;;;5011295;28;20777;-55
2022/07/21 13:56:50;;;;;;;7.97;7.30;;;;;;;;;;5027621;28;20677;-53
2022/07/21 13:59:17;;;;;;;10.70;9.07;;;;;;;;;;5025001;28;20315;-55
2022/07/21 14:01:43;;;;;;;10.13;9.13;;;;;;;;;;5005342;28;20178;-55
2022/07/21 14:04:10;;;;;;;10.83;9.73;;;;;;;;;;5008903;28;20192;-56
2022/07/21 14:06:36;;;;;;;10.40;9.30;;;;;;;;;;5025884;28;20623;-53
2022/07/21 14:09:03;;;;;;;9.93;8.97;;;;;;;;;;5028551;28;20217;-52
2022/07/21 14:11:29;;;;;;;10.23;8.67;;;;;;;;;;5006841;28;20701;-55
2022/07/21 14:13:56;;;;;;;9.03;8.13;;;;;;;;;;5028062;28;20180;-56
2022/07/21 14:16:22;;;;;;;9.67;8.23;;;;;;;;;;5023116;28;20808;-53
2022/07/21 14:18:48;;;;;;;9.70;7.37;;;;;;;;;;5026164;28;20198;-52
2022/07/21 14:21:21;;;;;;;11.40;10.47;;;;;;;;;;5029135;28;20907;-54
2022/07/21 14:23:47;;;;;;;10.27;9.37;;;;;;;;;;5027001;28;20528;-55
2022/07/21 14:26:13;;;;;;;8.37;7.63;;;;;;;;;;5022672;28;20332;-54
2022/07/21 14:28:39;;;;;;;9.87;8.90;;;;;;;;;;5026371;28;20487;-55
2022/07/21 14:31:10;;;;;;;7.70;6.97;;;;;;;;;;5021893;28;20218;-54
2022/07/21 14:33:36;;;;;;;8.03;7.40;;;;;;;;;;5030156;28;21766;-54
2022/07/21 14:36:03;;;;;;;7.53;6.83;;;;;;;;;;5005779;28;20192;-54
2022/07/21 14:38:29;;;;;;;8.00;7.40;;;;;;;;;;5009431;28;20244;-56
2022/07/21 14:40:55;;;;;;;7.40;6.77;;;;;;;;;;5026630;28;20265;-54
2022/07/21 14:43:21;;;;;;;5.40;4.90;;;;;;;;;;5024882;28;20171;-54
2022/07/21 14:45:47;;;;;;;6.23;5.63;;;;;;;;;;5025391;28;20182;-55
2022/07/21 14:48:13;;;;;;;5.83;5.33;;;;;;;;;;5026351;28;20581;-54